Time;durP1;ratioP1;P1;durP2;ratioP2;P2;SDS_P1;SDS_P2;PMS_P1;PMS_P2;Temp;Humidity;BMP_temperature;BMP_pressure;BME280_temperature;BME280_humidity;BME280_pressure;Samples;Min_cycle;Max_cycle;Signal;HPM_P1;HPM_P2
2022/10/20 00:03:56;;;;;;;16.63;7.80;;;;;;;4.41;97.87;101769.28;3458898;84;26488;-87
2022/10/20 00:09:00;;;;;;;16.83;8.00;;;;;;;4.41;97.96;101773.38;3442507;84;98660;-87
2022/10/20 00:14:02;;;;;;;17.33;7.43;;;;;;;4.34;97.67;101771.08;3447170;84;33266;-87
2022/10/20 00:19:03;;;;;;;20.23;8.03;;;;;;;4.28;97.60;101769.56;3447320;84;98725;-87
2022/10/20 00:24:04;;;;;;;18.83;8.70;;;;;;;4.26;97.67;101772.34;3442005;84;33646;-88
2022/10/20 00:29:05;;;;;;;18.30;8.23;;;;;;;4.21;97.68;101756.88;3435531;83;98724;-89
2022/10/20 00:34:05;;;;;;;14.37;7.13;;;;;;;4.19;97.75;101759.10;3453405;84;33739;-89
2022/10/20 00:39:06;;;;;;;17.80;9.13;;;;;;;4.11;97.20;101753.02;3481202;83;98605;-88
2022/10/20 00:44:49;;;;;;;18.27;8.53;;;;;;;4.04;97.66;101753.16;3491842;83;33818;-89
2022/10/20 00:49:51;;;;;;;20.43;8.43;;;;;;;4.00;97.67;101754.86;3481594;83;98553;-88
2022/10/20 00:54:52;;;;;;;18.07;7.90;;;;;;;3.95;97.67;101744.88;3485735;83;26667;-89
2022/10/20 00:59:53;;;;;;;17.10;7.50;;;;;;;3.90;97.41;101750.95;3462417;82;98283;-88
2022/10/20 01:04:54;;;;;;;16.73;7.97;;;;;;;3.85;97.45;101748.32;3481758;83;33237;-89
2022/10/20 01:09:55;;;;;;;18.67;8.70;;;;;;;3.79;97.50;101741.35;3452454;83;98453;-88
2022/10/20 01:15:17;;;;;;;19.53;8.33;;;;;;;3.76;97.46;101736.52;3467472;83;33248;-88
2022/10/20 01:20:38;;;;;;;22.25;9.13;;;;;;;3.72;97.43;101732.20;3477195;83;98874;-88
2022/10/20 01:26:08;;;;;;;25.50;9.43;;;;;;;3.66;97.53;101727.96;3464854;83;26300;-88
2022/10/20 01:31:41;;;;;;;20.23;9.37;;;;;;;3.63;97.60;101725.85;3465627;83;25931;-88
2022/10/20 01:36:58;;;;;;;19.77;8.80;;;;;;;3.55;97.32;101720.29;3459857;83;98374;-88
2022/10/20 01:42:04;;;;;;;21.63;9.47;;;;;;;3.50;97.39;101717.08;3458280;83;31387;-88
2022/10/20 01:47:08;;;;;;;22.37;11.93;;;;;;;3.42;96.95;101717.78;3454866;83;98415;-88
2022/10/20 01:52:12;;;;;;;22.23;10.27;;;;;;;3.37;97.42;101720.58;3489019;83;33270;-88
2022/10/20 01:57:48;;;;;;;21.77;10.53;;;;;;;3.36;97.58;101730.40;3482304;83;98449;-88
2022/10/20 02:03:29;;;;;;;25.87;10.90;;;;;;;3.30;97.41;101720.17;3488282;83;33716;-88
2022/10/20 02:08:47;;;;;;;16.95;8.13;;;;;;;3.23;97.22;101715.64;3463292;83;99057;-87
2022/10/20 02:13:50;;;;;;;20.20;8.07;;;;;;;3.20;97.64;101701.28;3488002;83;25978;-88
2022/10/20 02:18:51;;;;;;;20.20;8.13;;;;;;;3.19;97.66;101696.95;3480176;83;98618;-88
2022/10/20 02:23:54;;;;;;;18.53;7.47;;;;;;;3.18;97.90;101696.67;3443166;83;33259;-88
2022/10/20 02:29:06;;;;;;;21.57;8.10;;;;;;;3.18;98.10;101687.72;3462528;83;98413;-87
2022/10/20 02:34:08;;;;;;;15.87;6.40;;;;;;;3.17;98.21;101690.98;3477356;83;33896;-87
2022/10/20 02:39:10;;;;;;;15.30;7.03;;;;;;;3.16;98.34;101693.45;3424011;82;98409;-87
2022/10/20 02:44:11;;;;;;;14.80;6.83;;;;;;;3.12;98.66;101696.50;3441703;84;25823;-87
2022/10/20 02:49:11;;;;;;;17.30;7.40;;;;;;;3.11;98.70;101693.53;3427409;84;99018;-87
2022/10/20 02:54:12;;;;;;;17.50;8.37;;;;;;;3.09;99.33;101698.48;3431591;85;33181;-88
2022/10/20 02:59:16;;;;;;;13.77;6.63;;;;;;;3.14;99.64;101701.66;3440915;82;98359;-88
2022/10/20 03:04:17;;;;;;;17.67;7.10;;;;;;;3.19;99.66;101704.30;3434920;84;25982;-87
2022/10/20 03:09:17;;;;;;;16.93;7.20;;;;;;;3.21;99.97;101701.53;3430485;84;98347;-87
2022/10/20 03:14:18;;;;;;;15.57;7.53;;;;;;;3.25;100.00;101718.89;3455886;84;33656;-88
2022/10/20 03:19:19;;;;;;;13.00;6.47;;;;;;;3.26;100.00;101720.50;3439903;83;98647;-88
2022/10/20 03:24:20;;;;;;;16.80;8.40;;;;;;;3.27;100.00;101717.23;3442084;84;33830;-87
2022/10/20 03:29:20;;;;;;;17.13;8.00;;;;;;;3.26;99.43;101725.12;3422148;82;98942;-87
2022/10/20 03:34:21;;;;;;;18.63;8.37;;;;;;;3.23;99.54;101729.81;3433271;84;32814;-87
2022/10/20 03:39:22;;;;;;;17.17;8.50;;;;;;;3.17;99.27;101726.92;3431214;84;98426;-87
2022/10/20 03:44:24;;;;;;;16.77;8.07;;;;;;;3.13;99.45;101729.42;3461140;84;32239;-87
2022/10/20 03:49:25;;;;;;;17.07;8.30;;;;;;;3.12;99.40;101725.63;3448759;84;98705;-88
2022/10/20 03:54:25;;;;;;;17.67;8.90;;;;;;;3.08;99.41;101729.50;3438785;84;31692;-87
2022/10/20 03:59:26;;;;;;;17.17;8.00;;;;;;;3.06;99.37;101726.25;3427320;82;98720;-87
2022/10/20 04:04:27;;;;;;;17.77;8.13;;;;;;;3.01;99.05;101723.60;3449374;84;31599;-87
2022/10/20 04:09:28;;;;;;;20.25;8.75;;;;;;;2.95;99.22;101719.35;3451406;82;98409;-87
2022/10/20 04:14:28;;;;;;;16.83;8.70;;;;;;;2.94;99.22;101706.05;3430134;84;31113;-88
2022/10/20 04:19:29;;;;;;;16.73;8.23;;;;;;;2.92;99.30;101704.18;3439759;83;98511;-86
2022/10/20 04:24:30;;;;;;;20.50;8.57;;;;;;;2.90;99.42;101697.67;3464426;84;29950;-87
2022/10/20 04:29:31;;;;;;;19.57;9.27;;;;;;;2.87;99.35;101698.28;3443286;84;98453;-86
2022/10/20 04:34:32;;;;;;;20.17;9.47;;;;;;;2.84;99.28;101696.13;3443423;84;34917;-88
2022/10/20 04:39:32;;;;;;;19.83;9.63;;;;;;;2.81;99.33;101691.30;3454269;84;98255;-87
2022/10/20 04:44:33;;;;;;;19.27;9.00;;;;;;;2.79;99.37;101690.77;3450310;84;34885;-88
2022/10/20 04:49:34;;;;;;;20.10;9.93;;;;;;;2.79;99.31;101689.41;3437187;84;98338;-88
2022/10/20 04:54:35;;;;;;;22.03;10.77;;;;;;;2.76;99.57;101681.04;3438016;84;34883;-89
2022/10/20 04:59:36;;;;;;;26.03;11.37;;;;;;;2.72;99.39;101671.31;3459846;84;98498;-88
2022/10/20 05:04:36;;;;;;;20.30;11.50;;;;;;;2.69;99.56;101659.66;3451615;84;34991;-88
2022/10/20 05:09:37;;;;;;;26.27;14.60;;;;;;;2.70;99.61;101657.76;3449300;82;98512;-88
2022/10/20 05:14:38;;;;;;;22.13;10.60;;;;;;;2.64;99.68;101651.61;3459151;84;25879;-88
2022/10/20 05:19:39;;;;;;;28.95;11.15;;;;;;;2.63;99.75;101653.25;3445993;84;98465;-87
2022/10/20 05:24:39;;;;;;;26.80;11.23;;;;;;;2.60;99.64;101649.75;3455873;84;33155;-87
2022/10/20 05:29:40;;;;;;;24.10;13.10;;;;;;;2.58;99.70;101650.04;3451233;82;98636;-87
2022/10/20 05:34:42;;;;;;;19.23;10.70;;;;;;;2.57;99.99;101655.79;3461766;84;33073;-88
2022/10/20 05:39:43;;;;;;;22.77;11.47;;;;;;;2.56;99.81;101663.69;3437774;82;98760;-88
2022/10/20 05:44:44;;;;;;;21.50;10.70;;;;;;;2.53;100.00;101662.38;3445445;84;32510;-88
2022/10/20 05:49:45;;;;;;;23.57;12.30;;;;;;;2.52;100.00;101660.73;3450425;84;98864;-87
2022/10/20 05:54:45;;;;;;;27.67;12.60;;;;;;;2.52;100.00;101664.02;3453870;84;32411;-87
2022/10/20 05:59:46;;;;;;;27.50;12.17;;;;;;;2.52;100.00;101674.88;3448279;84;99150;-87
2022/10/20 06:04:47;;;;;;;24.07;12.17;;;;;;;2.52;100.00;101668.88;3450585;84;26700;-87
2022/10/20 06:09:49;;;;;;;23.70;11.83;;;;;;;2.54;100.00;101668.05;3427017;85;99047;-87
2022/10/20 06:14:49;;;;;;;25.90;13.77;;;;;;;2.55;100.00;101669.67;3450865;84;26005;-87
2022/10/20 06:19:50;;;;;;;30.83;14.43;;;;;;;2.58;100.00;101676.42;3445966;84;99043;-87
2022/10/20 06:24:51;;;;;;;29.93;16.97;;;;;;;2.61;100.00;101686.16;3452404;84;25974;-87
2022/10/20 06:29:53;;;;;;;30.10;14.97;;;;;;;2.63;100.00;101685.30;3445343;83;98721;-88
2022/10/20 06:34:54;;;;;;;30.17;14.67;;;;;;;2.65;100.00;101684.47;3453175;84;26509;-88
2022/10/20 06:39:55;;;;;;;33.37;17.70;;;;;;;2.71;100.00;101690.63;3470698;82;98580;-88
2022/10/20 06:44:57;;;;;;;34.87;17.93;;;;;;;2.74;100.00;101697.64;3475292;83;26411;-87
2022/10/20 06:49:58;;;;;;;34.50;16.93;;;;;;;2.82;100.00;101700.25;3477130;83;98598;-90
2022/10/20 06:54:59;;;;;;;32.10;18.77;;;;;;;2.87;100.00;101697.45;3485666;83;26369;-92
2022/10/20 06:59:59;;;;;;;37.30;20.03;;;;;;;2.96;100.00;101709.30;3477540;84;98816;-90
2022/10/20 07:05:00;;;;;;;47.90;23.87;;;;;;;3.05;100.00;101705.60;3482705;84;25897;-89
2022/10/20 07:10:01;;;;;;;43.57;22.90;;;;;;;3.15;100.00;101719.58;3478991;84;98726;-89
2022/10/20 07:15:03;;;;;;;45.05;21.93;;;;;;;3.23;100.00;101714.84;3484143;84;33283;-89
2022/10/20 07:20:05;;;;;;;39.60;20.93;;;;;;;3.29;100.00;101712.30;3475933;84;98802;-89
2022/10/20 07:25:07;;;;;;;44.33;23.10;;;;;;;3.41;100.00;101703.10;3483011;83;33256;-89
2022/10/20 07:30:08;;;;;;;37.97;19.27;;;;;;;3.53;100.00;101702.89;3479576;84;99104;-89
2022/10/20 07:35:09;;;;;;;38.90;18.10;;;;;;;3.69;100.00;101697.97;3486155;83;33299;-87
2022/10/20 07:40:11;;;;;;;35.50;17.57;;;;;;;3.87;100.00;101697.10;3450345;83;99227;-88
2022/10/20 07:45:11;;;;;;;28.80;14.97;;;;;;;4.04;100.00;101706.84;3450660;84;33321;-88
2022/10/20 07:50:12;;;;;;;32.67;16.20;;;;;;;4.23;100.00;101699.36;3445555;84;99068;-87
2022/10/20 07:55:13;;;;;;;29.73;16.47;;;;;;;4.44;100.00;101705.45;3449117;84;33324;-87
2022/10/20 08:00:14;;;;;;;29.37;15.20;;;;;;;4.66;100.00;101709.61;3408263;85;98608;-87
2022/10/20 08:05:15;;;;;;;33.37;15.87;;;;;;;4.92;100.00;101703.80;3447096;84;33208;-86
2022/10/20 08:10:16;;;;;;;29.63;15.00;;;;;;;5.21;100.00;101696.57;3405275;85;98556;-87
2022/10/20 08:15:17;;;;;;;26.90;13.13;;;;;;;5.53;100.00;101694.39;3451088;84;33311;-86
2022/10/20 08:20:20;;;;;;;23.07;12.23;;;;;;;5.90;100.00;101685.74;3390913;85;99201;-86
2022/10/20 08:25:21;;;;;;;26.43;14.07;;;;;;;6.28;100.00;101687.42;3450704;83;33231;-87
2022/10/20 08:30:22;;;;;;;19.53;11.10;;;;;;;6.68;100.00;101687.56;3432973;84;98800;-87
2022/10/20 08:35:24;;;;;;;16.73;9.07;;;;;;;7.13;100.00;101683.38;3418816;85;33306;-86
2022/10/20 08:40:28;;;;;;;16.87;7.77;;;;;;;7.73;100.00;101691.73;3467448;84;98460;-87
2022/10/20 08:45:29;;;;;;;18.40;8.00;;;;;;;8.34;100.00;101680.19;3483082;83;25867;-86
2022/10/20 08:50:31;;;;;;;14.80;6.45;;;;;;;8.99;100.00;101676.84;3478430;83;98788;-87
2022/10/20 08:55:33;;;;;;;12.57;5.40;;;;;;;9.74;100.00;101678.56;3482582;83;33260;-89
2022/10/20 09:00:37;;;;;;;11.48;5.22;;;;;;;10.48;100.00;101657.64;3476812;83;98781;-88
2022/10/20 09:05:41;;;;;;;11.33;4.17;;;;;;;11.16;99.98;101671.66;3483933;84;25978;-89
2022/10/20 09:10:51;;;;;;;8.78;4.37;;;;;;;11.82;96.41;101669.98;3475885;84;98924;-87
2022/10/20 09:16:18;;;;;;;13.63;4.57;;;;;;;12.45;94.27;101667.37;3483105;84;25861;-89
2022/10/20 09:21:21;;;;;;;9.43;3.43;;;;;;;12.59;92.05;101665.73;3481775;83;26597;-89
2022/10/20 09:26:35;;;;;;;8.03;3.87;;;;;;;13.21;89.65;101664.73;3479897;84;99008;-90
2022/10/20 09:31:41;;;;;;;8.93;4.27;;;;;;;13.38;87.30;101659.55;3485376;84;26388;-90
2022/10/20 09:36:42;;;;;;;9.05;3.85;;;;;;;13.88;83.68;101666.77;3480017;83;98614;-86
2022/10/20 09:41:43;;;;;;;8.37;3.80;;;;;;;14.15;84.06;101667.84;3479208;83;33223;-89
2022/10/20 09:46:47;;;;;;;8.60;3.47;;;;;;;14.73;82.33;101663.63;3478886;82;98487;-90
2022/10/20 09:51:48;;;;;;;7.35;3.75;;;;;;;15.02;78.85;101657.27;3486760;83;25952;-86
2022/10/20 09:56:51;;;;;;;9.23;3.67;;;;;;;15.10;77.91;101661.72;3464692;82;98976;-85
2022/10/20 10:01:55;;;;;;;9.60;4.13;;;;;;;15.37;76.50;101654.16;3487385;83;25864;-86
2022/10/20 10:06:57;;;;;;;6.53;3.10;;;;;;;15.63;76.08;101652.05;3471446;82;98787;-85
2022/10/20 10:12:12;;;;;;;7.80;3.60;;;;;;;15.37;73.58;101611.16;3480118;84;26604;-85
2022/10/20 10:17:31;;;;;;;6.70;3.17;;;;;;;15.70;72.37;101634.06;3472248;82;99016;-86
2022/10/20 10:22:33;;;;;;;7.80;2.85;;;;;;;15.68;71.00;101623.95;3479925;84;25933;-87
2022/10/20 10:27:35;;;;;;;5.65;2.35;;;;;;;15.44;69.20;101616.19;3469977;84;99035;-86
2022/10/20 10:32:43;;;;;;;11.25;4.87;;;;;;;15.54;69.92;101618.86;3485707;83;26146;-88
2022/10/20 10:37:45;;;;;;;7.70;2.92;;;;;;;15.48;68.47;101613.45;3473696;83;98982;-86
2022/10/20 10:43:06;;;;;;;9.48;3.10;;;;;;;15.30;67.90;101609.64;3448611;84;25965;-87
2022/10/20 10:48:25;;;;;;;5.83;2.67;;;;;;;15.17;66.47;101606.93;3406239;85;99182;-90
2022/10/20 10:53:55;;;;;;;7.08;2.42;;;;;;;14.84;66.42;101590.30;3451704;84;26065;-86
2022/10/20 10:59:13;;;;;;;5.97;2.52;;;;;;;14.72;66.33;101591.34;3409990;85;98601;-87
2022/10/20 11:04:46;;;;;;;6.08;2.22;;;;;;;14.55;66.37;101584.98;3453754;84;25828;-92
2022/10/20 11:10:29;;;;;;;7.73;3.30;;;;;;;14.59;66.22;101570.59;3403659;85;98474;-90
2022/10/20 11:15:50;;;;;;;8.63;3.30;;;;;;;14.36;65.97;101565.74;3450767;84;26019;-88
2022/10/20 11:20:56;;;;;;;6.80;3.10;;;;;;;14.24;65.97;101557.67;3441202;83;98455;-89
2022/10/20 11:26:29;;;;;;;10.55;2.95;;;;;;;13.95;66.49;101549.28;3448638;84;26159;-93
2022/10/20 11:31:47;;;;;;;10.28;3.22;;;;;;;13.86;66.24;101547.36;3453924;84;26444;-90
2022/10/20 11:37:08;;;;;;;8.60;3.43;;;;;;;13.74;66.64;101535.11;3400647;85;98962;-89
2022/10/20 11:42:33;;;;;;;10.32;4.47;;;;;;;13.69;66.54;101529.89;3435524;84;25924;-89
2022/10/20 11:47:38;;;;;;;8.50;3.40;;;;;;;13.43;66.34;101519.59;3427348;82;98898;-88
2022/10/20 11:52:54;;;;;;;7.50;2.97;;;;;;;13.40;66.31;101505.11;3342291;86;26557;-87
2022/10/20 11:58:01;;;;;;;;;;;;;;;13.27;67.10;101495.42;3422610;82;98924;-89
2022/10/20 12:03:26;;;;;;;9.25;3.62;;;;;;;13.14;65.64;101489.06;3424486;85;25993;-89
2022/10/20 12:08:49;;;;;;;11.37;4.10;;;;;;;12.93;67.57;101473.45;3418577;84;98769;-86
2022/10/20 12:14:17;;;;;;;9.00;4.07;;;;;;;12.93;68.16;101479.76;3425449;84;25847;-89
2022/10/20 12:19:30;;;;;;;9.80;4.37;;;;;;;12.81;67.97;101484.08;3352104;85;98588;-88
2022/10/20 12:24:39;;;;;;;11.70;4.53;;;;;;;12.73;68.51;101476.03;3436445;85;26475;-88
2022/10/20 12:29:45;;;;;;;11.80;4.63;;;;;;;12.45;68.28;101450.63;3420441;82;98725;-87
2022/10/20 12:34:49;;;;;;;10.70;4.50;;;;;;;12.47;68.23;101472.57;3358196;86;26608;-86
2022/10/20 12:39:57;;;;;;;10.50;5.25;;;;;;;12.35;68.91;101465.02;3447339;84;98815;-87
2022/10/20 12:45:04;;;;;;;11.60;5.47;;;;;;;12.32;69.25;101456.87;3482192;82;26514;-86
2022/10/20 12:50:43;;;;;;;9.48;4.30;;;;;;;12.19;69.15;101449.91;3481783;82;98722;-89
2022/10/20 12:56:02;;;;;;;9.27;4.43;;;;;;;12.12;70.04;101416.66;3482487;83;26173;-88
2022/10/20 13:01:11;;;;;;;10.40;4.60;;;;;;;12.12;70.04;101416.66;3411183;85;98503;-92
2022/10/20 13:06:32;;;;;;;11.03;5.00;;;;;;;12.06;69.48;101413.16;3368970;84;98946;-89
2022/10/20 13:11:41;;;;;;;10.75;4.65;;;;;;;11.92;69.85;101411.48;3482262;84;25980;-87
2022/10/20 13:17:11;;;;;;;9.60;4.27;;;;;;;11.72;70.63;101394.72;3384640;84;99060;-92
2022/10/20 13:22:48;;;;;;;9.27;4.57;;;;;;;11.72;70.63;101394.72;3479833;83;26127;-90
2022/10/20 13:27:49;;;;;;;8.83;4.03;;;;;;;11.65;70.81;101395.34;3471010;82;99125;-89
2022/10/20 13:33:24;;;;;;;9.73;4.13;;;;;;;11.76;70.98;101401.89;3483263;83;34468;-90
2022/10/20 13:38:47;;;;;;;8.10;3.80;;;;;;;11.73;70.73;101400.44;3471758;82;98583;-90
2022/10/20 13:44:08;;;;;;;9.27;4.57;;;;;;;11.70;71.57;101397.02;3485850;83;26615;-88
2022/10/20 13:49:43;;;;;;;11.90;5.08;;;;;;;11.65;70.99;101402.24;3480078;83;98595;-88
2022/10/20 13:54:51;;;;;;;9.53;5.83;;;;;;;11.59;71.60;101394.60;3477737;83;26075;-88
2022/10/20 14:00:06;;;;;;;11.80;4.67;;;;;;;11.55;71.66;101391.73;3475012;82;98859;-89
2022/10/20 14:05:11;;;;;;;13.63;5.33;;;;;;;11.47;72.17;101382.30;3481015;83;25844;-88
2022/10/20 14:10:53;;;;;;;10.85;5.37;;;;;;;11.40;71.84;101387.05;3476027;84;98774;-91
2022/10/20 14:15:57;;;;;;;13.27;5.97;;;;;;;11.32;71.22;101374.85;3483428;83;26081;-91
2022/10/20 14:21:09;;;;;;;12.07;4.83;;;;;;;11.25;71.86;101363.67;3477003;83;98243;-89
2022/10/20 14:26:18;;;;;;;11.43;4.10;;;;;;;11.16;71.99;101347.91;3476163;83;98836;-90
2022/10/20 14:31:23;;;;;;;9.65;4.30;;;;;;;11.06;71.63;101344.34;3483860;84;25852;-90
2022/10/20 14:36:27;;;;;;;11.27;4.27;;;;;;;10.95;72.22;101352.34;3472758;83;99010;-91
2022/10/20 14:41:34;;;;;;;12.07;5.67;;;;;;;10.86;71.93;101355.84;3488535;83;31323;-87
2022/10/20 14:46:42;;;;;;;11.30;5.03;;;;;;;10.76;71.97;101349.52;3490387;84;99034;-91
2022/10/20 14:52:07;;;;;;;10.47;4.50;;;;;;;10.64;72.46;101344.08;3492933;83;26516;-89
2022/10/20 14:57:13;;;;;;;11.83;4.90;;;;;;;10.56;72.82;101338.19;3436915;84;98984;-88
2022/10/20 15:02:21;;;;;;;10.03;5.08;;;;;;;10.45;72.71;101321.17;3448807;85;26651;-90
2022/10/20 15:07:32;;;;;;;12.50;5.57;;;;;;;10.37;73.33;101319.40;3441270;85;99220;-89
2022/10/20 15:12:38;;;;;;;12.00;5.53;;;;;;;10.28;73.15;101319.58;3449240;84;25835;-88
2022/10/20 15:17:43;;;;;;;13.83;5.50;;;;;;;10.21;73.40;101307.02;3439964;85;99075;-88
2022/10/20 15:22:45;;;;;;;11.93;5.90;;;;;;;10.15;73.95;101304.87;3448391;84;25946;-88
2022/10/20 15:27:46;;;;;;;12.57;6.40;;;;;;;10.04;73.99;101294.94;3445271;84;98993;-87
2022/10/20 15:32:47;;;;;;;12.97;5.97;;;;;;;9.95;74.33;101294.29;3448939;84;33213;-86
2022/10/20 15:37:52;;;;;;;10.63;5.93;;;;;;;9.87;74.56;101293.85;3444410;84;98851;-86
2022/10/20 15:42:53;;;;;;;13.43;5.90;;;;;;;9.80;74.86;101279.11;3425545;85;25969;-88
2022/10/20 15:47:54;;;;;;;18.33;8.93;;;;;;;9.69;75.33;101285.70;3410483;85;98567;-87
2022/10/20 15:52:55;;;;;;;13.78;6.67;;;;;;;9.61;75.80;101276.23;3374902;86;33253;-88
2022/10/20 15:57:56;;;;;;;15.88;8.13;;;;;;;9.52;76.11;101275.56;3467389;82;98385;-87
2022/10/20 16:02:57;;;;;;;16.93;8.10;;;;;;;9.40;76.54;101275.61;3484440;84;33298;-90
2022/10/20 16:07:58;;;;;;;17.30;8.87;;;;;;;9.28;76.86;101276.44;3383517;85;100162;-87
2022/10/20 16:12:58;;;;;;;15.70;9.67;;;;;;;9.17;77.26;101264.34;3481846;84;33246;-87
2022/10/20 16:17:59;;;;;;;13.17;7.93;;;;;;;9.08;77.77;101258.76;3479860;83;98912;-86
2022/10/20 16:23:00;;;;;;;18.37;7.83;;;;;;;8.95;78.10;101258.57;3478655;84;33284;-86
2022/10/20 16:28:00;;;;;;;20.60;9.33;;;;;;;8.86;78.58;101262.00;3468147;83;98767;-88
2022/10/20 16:33:01;;;;;;;17.93;9.83;;;;;;;8.77;78.99;101258.60;3472651;84;31677;-87
2022/10/20 16:38:02;;;;;;;19.50;11.27;;;;;;;8.67;79.42;101249.45;3383619;85;98854;-86
2022/10/20 16:43:03;;;;;;;21.10;12.00;;;;;;;8.54;79.67;101245.91;3479102;84;31664;-87
2022/10/20 16:48:04;;;;;;;23.47;13.53;;;;;;;8.43;80.32;101247.52;3477602;83;99037;-88
2022/10/20 16:53:05;;;;;;;24.87;13.20;;;;;;;8.33;80.66;101245.78;3475108;84;31588;-88
2022/10/20 16:58:06;;;;;;;21.57;11.60;;;;;;;8.02;81.03;101218.87;3408101;85;98527;-87
2022/10/20 17:03:06;;;;;;;19.15;10.65;;;;;;;8.12;81.28;101253.29;3483097;83;31725;-87
2022/10/20 17:08:07;;;;;;;20.10;10.77;;;;;;;8.03;81.72;101245.16;3470177;83;98663;-91
2022/10/20 17:13:09;;;;;;;20.07;10.67;;;;;;;7.95;82.18;101246.61;3490346;83;26550;-87
2022/10/20 17:18:10;;;;;;;17.53;11.30;;;;;;;7.88;82.64;101258.14;3476229;83;98829;-87
2022/10/20 17:23:10;;;;;;;20.13;11.07;;;;;;;7.77;82.76;101252.86;3491991;83;34892;-88
2022/10/20 17:28:11;;;;;;;23.33;11.87;;;;;;;7.71;83.14;101252.84;3485196;83;98608;-92
2022/10/20 17:33:13;;;;;;;24.83;13.17;;;;;;;7.62;83.50;101243.09;3493547;83;34843;-86
2022/10/20 17:38:14;;;;;;;22.10;12.80;;;;;;;7.53;83.89;101239.65;3469630;83;98998;-87
2022/10/20 17:43:15;;;;;;;20.30;12.17;;;;;;;7.45;84.21;101234.48;3486408;83;34806;-88
2022/10/20 17:48:16;;;;;;;20.07;12.17;;;;;;;7.39;84.62;101252.81;3472417;83;98993;-89
2022/10/20 17:53:17;;;;;;;19.50;11.23;;;;;;;7.33;85.04;101250.05;3492875;83;34931;-89
2022/10/20 17:58:18;;;;;;;17.75;9.45;;;;;;;7.27;85.30;101254.95;3478983;82;98485;-89
2022/10/20 18:03:19;;;;;;;38.12;17.24;;;;;;;7.22;85.68;101249.67;3492449;83;35383;-90
2022/10/20 18:08:19;;;;;;;17.87;10.00;;;;;;;7.17;85.97;101236.19;3482909;83;98983;-88
2022/10/20 18:13:20;;;;;;;17.83;9.43;;;;;;;7.17;86.18;101229.89;3487891;83;25853;-88
2022/10/20 18:18:21;;;;;;;19.27;9.87;;;;;;;7.14;86.26;101220.41;3481397;83;98591;-92
2022/10/20 18:23:22;;;;;;;19.40;10.33;;;;;;;7.13;86.59;101205.12;3491783;83;33100;-88
2022/10/20 18:28:23;;;;;;;16.67;9.15;;;;;;;7.10;86.67;101189.36;3478554;82;98827;-95
2022/10/20 18:33:25;;;;;;;15.77;8.80;;;;;;;7.09;86.66;101181.51;3485711;83;32467;-88
2022/10/20 18:38:25;;;;;;;17.40;9.00;;;;;;;7.06;86.92;101174.77;3481042;82;98440;-89
2022/10/20 18:43:26;;;;;;;17.10;8.13;;;;;;;7.05;87.10;101166.33;3465922;83;32534;-89
2022/10/20 18:48:28;;;;;;;16.27;9.30;;;;;;;7.05;87.08;101163.59;3455687;84;98764;-90
2022/10/20 18:53:30;;;;;;;16.23;8.33;;;;;;;7.06;87.18;101163.01;3453408;84;31438;-89
2022/10/20 18:58:38;;;;;;;17.27;8.58;;;;;;;7.05;87.22;101162.23;3452069;84;98732;-87
2022/10/20 19:03:40;;;;;;;21.40;9.37;;;;;;;7.04;87.15;101170.77;3445025;84;28914;-87
2022/10/20 19:08:41;;;;;;;18.40;8.98;;;;;;;7.02;87.19;101169.73;3449177;84;98714;-87
2022/10/20 19:13:42;;;;;;;26.90;12.20;;;;;;;7.02;87.29;101163.44;3465445;84;25946;-86
2022/10/20 19:18:46;;;;;;;19.17;9.73;;;;;;;6.99;87.42;101159.44;3457374;81;99228;-89
2022/10/20 19:23:51;;;;;;;14.83;7.67;;;;;;;6.97;87.25;101158.17;3461904;84;29739;-87
2022/10/20 19:29:00;;;;;;;16.17;8.08;;;;;;;6.95;87.34;101153.61;3434717;84;98472;-89
2022/10/20 19:34:09;;;;;;;17.47;8.33;;;;;;;6.91;87.28;101146.64;3453805;84;28802;-90
2022/10/20 19:39:11;;;;;;;16.25;7.70;;;;;;;6.88;87.33;101127.36;3458782;84;98709;-89
2022/10/20 19:44:14;;;;;;;16.33;7.73;;;;;;;6.84;87.48;101123.12;3479342;83;28693;-90
2022/10/20 19:49:15;;;;;;;15.85;8.40;;;;;;;6.82;87.52;101121.28;3474197;83;98679;-86
2022/10/20 19:54:16;;;;;;;17.20;8.27;;;;;;;6.79;87.60;101114.31;3491986;83;25939;-89
2022/10/20 19:59:17;;;;;;;17.73;7.90;;;;;;;6.77;87.82;101117.96;3483504;83;98674;-89
2022/10/20 20:04:18;;;;;;;17.80;8.50;;;;;;;6.74;87.83;101104.38;3463636;83;26045;-91
2022/10/20 20:09:19;;;;;;;14.63;7.90;;;;;;;6.74;87.79;101095.37;3472849;83;98727;-91
2022/10/20 20:14:20;;;;;;;18.00;8.47;;;;;;;6.72;87.94;101086.70;3485926;83;25937;-89
2022/10/20 20:19:21;;;;;;;14.33;7.63;;;;;;;6.72;87.94;101070.29;3479094;83;98409;-88
2022/10/20 20:24:22;;;;;;;17.33;8.00;;;;;;;6.70;87.96;101066.52;3474541;83;26095;-87
2022/10/20 20:29:23;;;;;;;15.00;7.37;;;;;;;6.70;88.22;101064.37;3482694;83;98441;-93
2022/10/20 20:34:24;;;;;;;18.37;8.67;;;;;;;6.68;88.09;101048.84;3481098;83;26032;-89
2022/10/20 20:39:25;;;;;;;18.02;7.50;;;;;;;6.67;88.24;101054.08;3484474;83;98962;-90
2022/10/20 20:44:25;;;;;;;16.70;7.73;;;;;;;6.66;88.29;101045.06;3459894;83;33240;-87
2022/10/20 20:49:26;;;;;;;19.07;8.77;;;;;;;6.65;88.29;101039.95;3444943;83;98116;-92
2022/10/20 20:54:27;;;;;;;20.30;9.10;;;;;;;6.63;88.35;101037.55;3452117;84;33287;-88
2022/10/20 20:59:28;;;;;;;14.27;7.73;;;;;;;6.60;88.57;101038.20;3444010;84;98177;-91
2022/10/20 21:04:29;;;;;;;19.27;8.63;;;;;;;6.59;88.39;101029.77;3439770;84;33331;-91
2022/10/20 21:09:30;;;;;;;17.67;8.40;;;;;;;6.58;88.39;101026.00;3445265;83;98384;-92
2022/10/20 21:14:32;;;;;;;16.77;8.33;;;;;;;6.56;88.54;101025.55;3442246;84;33234;-88
2022/10/20 21:19:32;;;;;;;18.95;9.45;;;;;;;6.53;88.54;101028.38;3438041;83;98544;-87
2022/10/20 21:24:33;;;;;;;17.73;8.63;;;;;;;6.52;88.59;101042.39;3434889;84;33240;-88
2022/10/20 21:29:34;;;;;;;19.70;8.50;;;;;;;6.50;88.53;101022.80;3427143;83;98646;-85
2022/10/20 21:34:35;;;;;;;20.47;9.73;;;;;;;6.47;88.69;101022.89;3425684;84;31645;-86
2022/10/20 21:39:36;;;;;;;18.65;9.03;;;;;;;6.47;88.68;101029.73;3432004;84;98693;-88
2022/10/20 21:44:36;;;;;;;19.67;9.00;;;;;;;6.45;88.80;101017.53;3463478;83;31661;-87
2022/10/20 21:49:37;;;;;;;18.63;9.77;;;;;;;6.41;88.76;101003.73;3483606;83;98337;-88
2022/10/20 21:54:38;;;;;;;24.10;9.30;;;;;;;6.41;88.77;101018.77;3471848;83;32257;-86
2022/10/20 21:59:39;;;;;;;21.20;9.50;;;;;;;6.39;88.84;101011.45;3466340;82;98164;-90
2022/10/20 22:04:39;;;;;;;21.30;9.48;;;;;;;6.37;88.98;101015.09;3473725;83;32151;-88
2022/10/20 22:09:40;;;;;;;20.52;9.15;;;;;;;6.36;88.91;100998.47;3484579;83;98411;-89
2022/10/20 22:14:41;;;;;;;18.30;9.17;;;;;;;6.35;89.02;101005.63;3478986;83;34863;-88
2022/10/20 22:19:42;;;;;;;25.90;10.10;;;;;;;6.32;89.27;100985.81;3473213;83;98936;-88
2022/10/20 22:24:42;;;;;;;22.17;9.60;;;;;;;6.28;89.21;100982.92;3483774;83;34908;-87
2022/10/20 22:29:43;;;;;;;23.57;11.70;;;;;;;6.27;89.32;100979.18;3482756;83;98533;-87
2022/10/20 22:34:44;;;;;;;20.77;10.23;;;;;;;6.24;89.46;100975.18;3493633;83;34854;-86
2022/10/20 22:39:45;;;;;;;19.92;10.35;;;;;;;6.21;89.52;100956.70;3480898;83;98578;-88
2022/10/20 22:44:46;;;;;;;23.90;10.80;;;;;;;6.18;89.65;100940.99;3461785;83;25803;-88
2022/10/20 22:49:47;;;;;;;19.42;10.55;;;;;;;6.14;89.78;100931.86;3445239;83;99001;-88
2022/10/20 22:54:48;;;;;;;21.30;10.20;;;;;;;6.13;89.92;100938.47;3463449;84;26583;-89
2022/10/20 22:59:50;;;;;;;20.00;10.53;;;;;;;6.09;90.01;100925.23;3442590;83;98858;-87
2022/10/20 23:04:51;;;;;;;21.27;10.50;;;;;;;6.08;89.99;100930.47;3462583;84;36139;-87
2022/10/20 23:09:52;;;;;;;19.20;9.97;;;;;;;6.07;90.07;100923.96;3457511;83;99195;-86
2022/10/20 23:14:53;;;;;;;23.80;12.20;;;;;;;6.05;90.07;100923.52;3449337;84;33153;-87
2022/10/20 23:19:54;;;;;;;23.50;12.50;;;;;;;6.02;90.19;100908.58;3447127;82;98966;-88
2022/10/20 23:24:54;;;;;;;22.70;11.63;;;;;;;6.00;90.17;100894.44;3462333;84;33137;-88
2022/10/20 23:29:55;;;;;;;22.07;11.30;;;;;;;5.98;90.21;100904.91;3453661;83;98382;-88
2022/10/20 23:34:56;;;;;;;20.97;11.20;;;;;;;5.95;90.28;100919.81;3456461;84;33164;-89